sensor_id;sensor_type;location;lat;lon;timestamp;temperature;humidity
20376;DHT22;10347;51.828;6.466;2023-11-18T00:02:23;6.50;99.90
20376;DHT22;10347;51.828;6.466;2023-11-18T00:04:50;6.50;99.90
20376;DHT22;10347;51.828;6.466;2023-11-18T00:07:17;6.50;99.90
20376;DHT22;10347;51.828;6.466;2023-11-18T00:09:42;6.50;99.90
20376;DHT22;10347;51.828;6.466;2023-11-18T00:12:11;6.50;99.90
20376;DHT22;10347;51.828;6.466;2023-11-18T00:14:37;6.50;99.90
20376;DHT22;10347;51.828;6.466;2023-11-18T00:17:03;6.60;99.90
20376;DHT22;10347;51.828;6.466;2023-11-18T00:19:29;6.60;99.90
20376;DHT22;10347;51.828;6.466;2023-11-18T00:21:55;6.60;99.90
20376;DHT22;10347;51.828;6.466;2023-11-18T00:24:20;6.60;99.90
20376;DHT22;10347;51.828;6.466;2023-11-18T00:26:46;6.60;99.90
20376;DHT22;10347;51.828;6.466;2023-11-18T00:29:12;6.60;99.90
20376;DHT22;10347;51.828;6.466;2023-11-18T00:31:37;6.60;99.90
20376;DHT22;10347;51.828;6.466;2023-11-18T00:34:03;6.60;99.90
20376;DHT22;10347;51.828;6.466;2023-11-18T00:36:28;6.60;99.90
20376;DHT22;10347;51.828;6.466;2023-11-18T00:38:54;6.60;99.90
20376;DHT22;10347;51.828;6.466;2023-11-18T00:41:20;6.60;99.90
20376;DHT22;10347;51.828;6.466;2023-11-18T00:43:46;6.60;99.90
20376;DHT22;10347;51.828;6.466;2023-11-18T00:46:12;6.60;99.90
20376;DHT22;10347;51.828;6.466;2023-11-18T00:48:38;6.60;99.90
20376;DHT22;10347;51.828;6.466;2023-11-18T00:51:05;6.60;99.90
20376;DHT22;10347;51.828;6.466;2023-11-18T00:53:31;6.60;99.90
20376;DHT22;10347;51.828;6.466;2023-11-18T00:55:57;6.60;99.90
20376;DHT22;10347;51.828;6.466;2023-11-18T00:58:22;6.70;99.90
20376;DHT22;10347;51.828;6.466;2023-11-18T01:00:48;6.70;99.90
20376;DHT22;10347;51.828;6.466;2023-11-18T01:03:13;6.70;99.90
20376;DHT22;10347;51.828;6.466;2023-11-18T01:05:39;6.70;99.90
20376;DHT22;10347;51.828;6.466;2023-11-18T01:08:04;6.70;99.90
20376;DHT22;10347;51.828;6.466;2023-11-18T01:10:30;6.70;99.90
20376;DHT22;10347;51.828;6.466;2023-11-18T01:12:56;6.70;99.90
20376;DHT22;10347;51.828;6.466;2023-11-18T01:15:23;6.70;99.90
20376;DHT22;10347;51.828;6.466;2023-11-18T01:17:49;6.70;99.90
20376;DHT22;10347;51.828;6.466;2023-11-18T01:20:14;6.70;99.90
20376;DHT22;10347;51.828;6.466;2023-11-18T01:22:46;6.80;99.90
20376;DHT22;10347;51.828;6.466;2023-11-18T01:25:12;6.70;99.90
20376;DHT22;10347;51.828;6.466;2023-11-18T01:27:37;6.80;99.90
20376;DHT22;10347;51.828;6.466;2023-11-18T01:30:03;6.80;99.90
20376;DHT22;10347;51.828;6.466;2023-11-18T01:32:30;6.80;99.90
20376;DHT22;10347;51.828;6.466;2023-11-18T01:34:56;6.80;99.90
20376;DHT22;10347;51.828;6.466;2023-11-18T01:37:22;6.80;99.90
20376;DHT22;10347;51.828;6.466;2023-11-18T01:39:48;6.80;99.90
20376;DHT22;10347;51.828;6.466;2023-11-18T01:42:14;6.80;99.90
20376;DHT22;10347;51.828;6.466;2023-11-18T01:44:40;6.80;99.90
20376;DHT22;10347;51.828;6.466;2023-11-18T01:47:07;6.80;99.90
20376;DHT22;10347;51.828;6.466;2023-11-18T01:49:37;6.80;99.90
20376;DHT22;10347;51.828;6.466;2023-11-18T01:52:06;6.80;99.90
20376;DHT22;10347;51.828;6.466;2023-11-18T01:54:33;6.80;99.90
20376;DHT22;10347;51.828;6.466;2023-11-18T01:56:59;6.80;99.90
20376;DHT22;10347;51.828;6.466;2023-11-18T01:59:29;6.90;99.90
20376;DHT22;10347;51.828;6.466;2023-11-18T02:01:55;6.90;99.90
20376;DHT22;10347;51.828;6.466;2023-11-18T02:04:24;6.80;99.90
20376;DHT22;10347;51.828;6.466;2023-11-18T02:06:51;6.80;99.90
20376;DHT22;10347;51.828;6.466;2023-11-18T02:09:18;6.90;99.90
20376;DHT22;10347;51.828;6.466;2023-11-18T02:14:31;6.90;99.90
20376;DHT22;10347;51.828;6.466;2023-11-18T02:17:00;6.90;99.90
20376;DHT22;10347;51.828;6.466;2023-11-18T02:19:29;6.90;99.90
20376;DHT22;10347;51.828;6.466;2023-11-18T02:21:55;6.90;99.90
20376;DHT22;10347;51.828;6.466;2023-11-18T02:24:29;6.80;99.90
20376;DHT22;10347;51.828;6.466;2023-11-18T02:27:00;6.90;99.90
20376;DHT22;10347;51.828;6.466;2023-11-18T02:29:29;6.80;99.90
20376;DHT22;10347;51.828;6.466;2023-11-18T02:32:13;6.80;99.90
20376;DHT22;10347;51.828;6.466;2023-11-18T02:34:46;6.90;99.90
20376;DHT22;10347;51.828;6.466;2023-11-18T02:37:13;6.90;99.90
20376;DHT22;10347;51.828;6.466;2023-11-18T02:39:42;6.90;99.90
20376;DHT22;10347;51.828;6.466;2023-11-18T02:42:09;6.90;99.90
20376;DHT22;10347;51.828;6.466;2023-11-18T02:44:38;6.90;99.90
20376;DHT22;10347;51.828;6.466;2023-11-18T02:47:04;7.00;99.90
20376;DHT22;10347;51.828;6.466;2023-11-18T02:49:35;6.90;99.90
20376;DHT22;10347;51.828;6.466;2023-11-18T02:52:00;6.90;99.90
20376;DHT22;10347;51.828;6.466;2023-11-18T02:54:26;7.00;99.90
20376;DHT22;10347;51.828;6.466;2023-11-18T02:56:52;6.90;99.90
20376;DHT22;10347;51.828;6.466;2023-11-18T02:59:17;7.00;99.90
20376;DHT22;10347;51.828;6.466;2023-11-18T03:01:43;7.00;99.90
20376;DHT22;10347;51.828;6.466;2023-11-18T03:04:10;7.00;99.90
20376;DHT22;10347;51.828;6.466;2023-11-18T03:06:36;7.00;99.90
20376;DHT22;10347;51.828;6.466;2023-11-18T03:09:02;7.00;99.90
20376;DHT22;10347;51.828;6.466;2023-11-18T03:11:28;7.00;99.90
20376;DHT22;10347;51.828;6.466;2023-11-18T03:13:56;7.00;99.90
20376;DHT22;10347;51.828;6.466;2023-11-18T03:16:23;7.00;99.90
20376;DHT22;10347;51.828;6.466;2023-11-18T03:18:50;7.00;99.90
20376;DHT22;10347;51.828;6.466;2023-11-18T03:21:15;7.00;99.90
20376;DHT22;10347;51.828;6.466;2023-11-18T03:23:41;7.00;99.90
20376;DHT22;10347;51.828;6.466;2023-11-18T03:26:10;7.00;99.90
20376;DHT22;10347;51.828;6.466;2023-11-18T03:28:36;7.00;99.90
20376;DHT22;10347;51.828;6.466;2023-11-18T03:31:04;7.00;99.90
20376;DHT22;10347;51.828;6.466;2023-11-18T03:33:30;7.00;99.90
20376;DHT22;10347;51.828;6.466;2023-11-18T03:35:55;7.00;99.90
20376;DHT22;10347;51.828;6.466;2023-11-18T03:38:22;7.00;99.90
20376;DHT22;10347;51.828;6.466;2023-11-18T03:40:47;7.00;99.90
20376;DHT22;10347;51.828;6.466;2023-11-18T03:43:13;7.00;99.90
20376;DHT22;10347;51.828;6.466;2023-11-18T03:45:39;7.00;99.90
20376;DHT22;10347;51.828;6.466;2023-11-18T03:48:05;7.10;99.90
20376;DHT22;10347;51.828;6.466;2023-11-18T03:50:32;7.10;99.90
20376;DHT22;10347;51.828;6.466;2023-11-18T03:52:57;7.10;99.90
20376;DHT22;10347;51.828;6.466;2023-11-18T03:55:24;7.10;99.90
20376;DHT22;10347;51.828;6.466;2023-11-18T03:57:50;7.00;99.90
20376;DHT22;10347;51.828;6.466;2023-11-18T04:00:16;7.00;99.90
20376;DHT22;10347;51.828;6.466;2023-11-18T04:02:42;7.00;99.90
20376;DHT22;10347;51.828;6.466;2023-11-18T04:05:08;7.10;99.90
20376;DHT22;10347;51.828;6.466;2023-11-18T04:07:34;7.10;99.90
20376;DHT22;10347;51.828;6.466;2023-11-18T04:09:59;7.10;99.90
20376;DHT22;10347;51.828;6.466;2023-11-18T04:12:25;7.10;99.90
20376;DHT22;10347;51.828;6.466;2023-11-18T04:14:52;7.00;99.90
20376;DHT22;10347;51.828;6.466;2023-11-18T04:17:18;7.10;99.90
20376;DHT22;10347;51.828;6.466;2023-11-18T04:19:44;7.10;99.90
20376;DHT22;10347;51.828;6.466;2023-11-18T04:22:10;7.10;99.90
20376;DHT22;10347;51.828;6.466;2023-11-18T04:24:35;7.10;99.90
20376;DHT22;10347;51.828;6.466;2023-11-18T04:27:01;7.10;99.90
20376;DHT22;10347;51.828;6.466;2023-11-18T04:29:27;7.10;99.90
20376;DHT22;10347;51.828;6.466;2023-11-18T04:31:53;7.10;99.90
20376;DHT22;10347;51.828;6.466;2023-11-18T04:34:19;7.10;99.90
20376;DHT22;10347;51.828;6.466;2023-11-18T04:36:44;7.10;99.90
20376;DHT22;10347;51.828;6.466;2023-11-18T04:39:10;7.10;99.90
20376;DHT22;10347;51.828;6.466;2023-11-18T04:41:41;7.10;99.90
20376;DHT22;10347;51.828;6.466;2023-11-18T04:44:06;7.10;99.90
20376;DHT22;10347;51.828;6.466;2023-11-18T04:46:32;7.10;99.90
20376;DHT22;10347;51.828;6.466;2023-11-18T04:48:57;7.20;99.90
20376;DHT22;10347;51.828;6.466;2023-11-18T04:51:24;7.10;99.90
20376;DHT22;10347;51.828;6.466;2023-11-18T04:53:49;7.10;99.90
20376;DHT22;10347;51.828;6.466;2023-11-18T04:56:15;7.10;99.90
20376;DHT22;10347;51.828;6.466;2023-11-18T04:58:43;7.10;99.90
20376;DHT22;10347;51.828;6.466;2023-11-18T05:01:13;7.10;99.90
20376;DHT22;10347;51.828;6.466;2023-11-18T05:03:38;7.10;99.90
20376;DHT22;10347;51.828;6.466;2023-11-18T05:06:04;7.10;99.90
20376;DHT22;10347;51.828;6.466;2023-11-18T05:08:29;7.10;99.90
20376;DHT22;10347;51.828;6.466;2023-11-18T05:10:56;7.10;99.90
20376;DHT22;10347;51.828;6.466;2023-11-18T05:13:23;7.10;99.90
20376;DHT22;10347;51.828;6.466;2023-11-18T05:15:48;7.10;99.90
20376;DHT22;10347;51.828;6.466;2023-11-18T05:18:15;7.10;99.90
20376;DHT22;10347;51.828;6.466;2023-11-18T05:20:41;7.20;99.90
20376;DHT22;10347;51.828;6.466;2023-11-18T05:23:07;7.20;99.90
20376;DHT22;10347;51.828;6.466;2023-11-18T05:25:42;7.20;99.90
20376;DHT22;10347;51.828;6.466;2023-11-18T05:28:08;7.20;99.90
20376;DHT22;10347;51.828;6.466;2023-11-18T05:30:38;7.20;99.90
20376;DHT22;10347;51.828;6.466;2023-11-18T05:33:06;7.20;99.90
20376;DHT22;10347;51.828;6.466;2023-11-18T05:35:33;7.20;99.90
20376;DHT22;10347;51.828;6.466;2023-11-18T05:37:59;7.20;99.90
20376;DHT22;10347;51.828;6.466;2023-11-18T05:40:26;7.20;99.90
20376;DHT22;10347;51.828;6.466;2023-11-18T05:42:52;7.10;99.90
20376;DHT22;10347;51.828;6.466;2023-11-18T05:45:18;7.20;99.90
20376;DHT22;10347;51.828;6.466;2023-11-18T05:47:54;7.20;99.90
20376;DHT22;10347;51.828;6.466;2023-11-18T05:50:21;7.30;99.90
20376;DHT22;10347;51.828;6.466;2023-11-18T05:52:46;7.30;99.90
20376;DHT22;10347;51.828;6.466;2023-11-18T05:55:12;7.30;99.90
20376;DHT22;10347;51.828;6.466;2023-11-18T05:57:38;7.30;99.90
20376;DHT22;10347;51.828;6.466;2023-11-18T06:00:03;7.30;99.90
20376;DHT22;10347;51.828;6.466;2023-11-18T06:02:31;7.30;99.90
20376;DHT22;10347;51.828;6.466;2023-11-18T06:04:56;7.30;99.90
20376;DHT22;10347;51.828;6.466;2023-11-18T06:07:22;7.30;99.90
20376;DHT22;10347;51.828;6.466;2023-11-18T06:09:48;7.40;99.90
20376;DHT22;10347;51.828;6.466;2023-11-18T06:12:15;7.40;99.90
20376;DHT22;10347;51.828;6.466;2023-11-18T06:14:43;7.30;99.90
20376;DHT22;10347;51.828;6.466;2023-11-18T06:17:10;7.30;99.90
20376;DHT22;10347;51.828;6.466;2023-11-18T06:19:38;7.40;99.90
20376;DHT22;10347;51.828;6.466;2023-11-18T06:22:05;7.30;99.90
20376;DHT22;10347;51.828;6.466;2023-11-18T06:24:31;7.40;99.90
20376;DHT22;10347;51.828;6.466;2023-11-18T06:26:57;7.40;99.90
20376;DHT22;10347;51.828;6.466;2023-11-18T06:29:24;7.40;99.90
20376;DHT22;10347;51.828;6.466;2023-11-18T06:31:50;7.40;99.90
20376;DHT22;10347;51.828;6.466;2023-11-18T06:34:15;7.40;99.90
20376;DHT22;10347;51.828;6.466;2023-11-18T06:36:41;7.40;99.90
20376;DHT22;10347;51.828;6.466;2023-11-18T06:39:07;7.50;99.90
20376;DHT22;10347;51.828;6.466;2023-11-18T06:41:33;7.40;99.90
20376;DHT22;10347;51.828;6.466;2023-11-18T06:44:00;7.50;99.90
20376;DHT22;10347;51.828;6.466;2023-11-18T06:46:31;7.50;99.90
20376;DHT22;10347;51.828;6.466;2023-11-18T06:48:58;7.50;99.90
20376;DHT22;10347;51.828;6.466;2023-11-18T06:51:26;7.50;99.90
20376;DHT22;10347;51.828;6.466;2023-11-18T06:53:55;7.50;99.90
20376;DHT22;10347;51.828;6.466;2023-11-18T06:56:24;7.50;99.90
20376;DHT22;10347;51.828;6.466;2023-11-18T06:58:50;7.50;99.90
20376;DHT22;10347;51.828;6.466;2023-11-18T07:01:16;7.50;99.90
20376;DHT22;10347;51.828;6.466;2023-11-18T07:03:42;7.50;99.90
20376;DHT22;10347;51.828;6.466;2023-11-18T07:06:09;7.60;99.90
20376;DHT22;10347;51.828;6.466;2023-11-18T07:08:35;7.60;99.90
20376;DHT22;10347;51.828;6.466;2023-11-18T07:11:01;7.60;99.90
20376;DHT22;10347;51.828;6.466;2023-11-18T07:13:28;7.60;99.90
20376;DHT22;10347;51.828;6.466;2023-11-18T07:15:53;7.60;99.90
20376;DHT22;10347;51.828;6.466;2023-11-18T07:18:23;7.60;99.90
20376;DHT22;10347;51.828;6.466;2023-11-18T07:20:49;7.60;99.90
20376;DHT22;10347;51.828;6.466;2023-11-18T07:23:17;7.60;99.90
20376;DHT22;10347;51.828;6.466;2023-11-18T07:25:43;7.60;99.90
20376;DHT22;10347;51.828;6.466;2023-11-18T07:28:10;7.60;99.90
20376;DHT22;10347;51.828;6.466;2023-11-18T07:30:35;7.60;99.90
20376;DHT22;10347;51.828;6.466;2023-11-18T07:33:02;7.70;99.90
20376;DHT22;10347;51.828;6.466;2023-11-18T07:35:28;7.60;99.90
20376;DHT22;10347;51.828;6.466;2023-11-18T07:37:55;7.60;99.90
20376;DHT22;10347;51.828;6.466;2023-11-18T07:40:21;7.60;99.90
20376;DHT22;10347;51.828;6.466;2023-11-18T07:42:56;7.60;99.90
20376;DHT22;10347;51.828;6.466;2023-11-18T07:45:22;7.60;99.90
20376;DHT22;10347;51.828;6.466;2023-11-18T07:47:50;7.60;99.90
20376;DHT22;10347;51.828;6.466;2023-11-18T07:50:19;7.60;99.90
20376;DHT22;10347;51.828;6.466;2023-11-18T07:52:46;7.60;99.90
20376;DHT22;10347;51.828;6.466;2023-11-18T07:55:13;7.70;99.90
20376;DHT22;10347;51.828;6.466;2023-11-18T07:57:39;7.70;99.90
20376;DHT22;10347;51.828;6.466;2023-11-18T08:00:06;7.70;99.90
20376;DHT22;10347;51.828;6.466;2023-11-18T08:02:38;7.70;99.90
20376;DHT22;10347;51.828;6.466;2023-11-18T08:05:04;7.70;99.90
20376;DHT22;10347;51.828;6.466;2023-11-18T08:07:35;7.70;99.90
20376;DHT22;10347;51.828;6.466;2023-11-18T08:10:04;7.70;99.90
20376;DHT22;10347;51.828;6.466;2023-11-18T08:12:31;7.70;99.90
20376;DHT22;10347;51.828;6.466;2023-11-18T08:14:57;7.70;99.90
20376;DHT22;10347;51.828;6.466;2023-11-18T08:17:24;7.80;99.90
20376;DHT22;10347;51.828;6.466;2023-11-18T08:19:51;7.70;99.90
20376;DHT22;10347;51.828;6.466;2023-11-18T08:22:18;7.70;99.90
20376;DHT22;10347;51.828;6.466;2023-11-18T08:24:44;7.80;99.90
20376;DHT22;10347;51.828;6.466;2023-11-18T08:27:10;7.80;99.90
20376;DHT22;10347;51.828;6.466;2023-11-18T08:29:37;7.80;99.90
20376;DHT22;10347;51.828;6.466;2023-11-18T08:32:05;7.80;99.90
20376;DHT22;10347;51.828;6.466;2023-11-18T08:34:30;7.80;99.90
20376;DHT22;10347;51.828;6.466;2023-11-18T08:36:58;7.80;99.90
20376;DHT22;10347;51.828;6.466;2023-11-18T08:39:25;7.80;99.90
20376;DHT22;10347;51.828;6.466;2023-11-18T08:41:51;7.80;99.90
20376;DHT22;10347;51.828;6.466;2023-11-18T08:44:17;7.80;99.90
20376;DHT22;10347;51.828;6.466;2023-11-18T08:46:43;7.80;99.90
20376;DHT22;10347;51.828;6.466;2023-11-18T08:49:09;7.80;99.90
20376;DHT22;10347;51.828;6.466;2023-11-18T08:51:38;7.80;99.90
20376;DHT22;10347;51.828;6.466;2023-11-18T08:54:04;7.80;99.90
20376;DHT22;10347;51.828;6.466;2023-11-18T08:56:53;7.80;99.90
20376;DHT22;10347;51.828;6.466;2023-11-18T08:59:23;7.80;99.90
20376;DHT22;10347;51.828;6.466;2023-11-18T09:01:54;7.80;99.90
20376;DHT22;10347;51.828;6.466;2023-11-18T09:04:22;7.90;99.90
20376;DHT22;10347;51.828;6.466;2023-11-18T09:06:49;7.90;99.90
20376;DHT22;10347;51.828;6.466;2023-11-18T09:09:14;7.90;99.90
20376;DHT22;10347;51.828;6.466;2023-11-18T09:11:41;7.90;99.90
20376;DHT22;10347;51.828;6.466;2023-11-18T09:14:07;7.90;99.90
20376;DHT22;10347;51.828;6.466;2023-11-18T09:16:34;7.90;99.90
20376;DHT22;10347;51.828;6.466;2023-11-18T09:19:04;7.90;99.90
20376;DHT22;10347;51.828;6.466;2023-11-18T09:21:31;7.90;99.90
20376;DHT22;10347;51.828;6.466;2023-11-18T09:24:01;8.00;99.90
20376;DHT22;10347;51.828;6.466;2023-11-18T09:26:30;8.00;99.90
20376;DHT22;10347;51.828;6.466;2023-11-18T09:28:56;8.00;99.90
20376;DHT22;10347;51.828;6.466;2023-11-18T09:31:22;8.00;99.90
20376;DHT22;10347;51.828;6.466;2023-11-18T09:33:48;8.00;99.90
20376;DHT22;10347;51.828;6.466;2023-11-18T09:36:23;8.00;99.90
20376;DHT22;10347;51.828;6.466;2023-11-18T09:38:48;8.00;99.90
20376;DHT22;10347;51.828;6.466;2023-11-18T09:41:15;8.10;99.90
20376;DHT22;10347;51.828;6.466;2023-11-18T09:43:42;8.10;99.90
20376;DHT22;10347;51.828;6.466;2023-11-18T09:46:13;8.10;99.90
20376;DHT22;10347;51.828;6.466;2023-11-18T09:48:45;8.10;99.90
20376;DHT22;10347;51.828;6.466;2023-11-18T09:51:20;8.10;99.90
20376;DHT22;10347;51.828;6.466;2023-11-18T09:53:52;8.10;99.90
20376;DHT22;10347;51.828;6.466;2023-11-18T09:56:43;8.10;99.90
20376;DHT22;10347;51.828;6.466;2023-11-18T09:59:25;8.20;99.90
20376;DHT22;10347;51.828;6.466;2023-11-18T10:01:57;8.20;99.90
20376;DHT22;10347;51.828;6.466;2023-11-18T10:04:24;8.30;99.90
20376;DHT22;10347;51.828;6.466;2023-11-18T10:06:53;8.30;99.90
20376;DHT22;10347;51.828;6.466;2023-11-18T10:09:19;8.30;99.90
20376;DHT22;10347;51.828;6.466;2023-11-18T10:11:54;8.30;99.90
20376;DHT22;10347;51.828;6.466;2023-11-18T10:14:26;8.30;99.90
20376;DHT22;10347;51.828;6.466;2023-11-18T10:16:52;8.40;99.90
20376;DHT22;10347;51.828;6.466;2023-11-18T10:19:19;8.40;99.90
20376;DHT22;10347;51.828;6.466;2023-11-18T10:21:45;8.40;99.90
20376;DHT22;10347;51.828;6.466;2023-11-18T10:24:14;8.40;99.90
20376;DHT22;10347;51.828;6.466;2023-11-18T10:26:43;8.40;99.90
20376;DHT22;10347;51.828;6.466;2023-11-18T10:29:10;8.40;99.90
20376;DHT22;10347;51.828;6.466;2023-11-18T10:31:38;8.40;99.90
20376;DHT22;10347;51.828;6.466;2023-11-18T10:34:13;8.40;99.90
20376;DHT22;10347;51.828;6.466;2023-11-18T10:36:59;8.50;99.90
20376;DHT22;10347;51.828;6.466;2023-11-18T10:39:29;8.50;99.90
20376;DHT22;10347;51.828;6.466;2023-11-18T10:41:59;8.50;99.90
20376;DHT22;10347;51.828;6.466;2023-11-18T10:44:24;8.50;99.90
20376;DHT22;10347;51.828;6.466;2023-11-18T10:46:52;8.50;99.90
20376;DHT22;10347;51.828;6.466;2023-11-18T10:49:22;8.50;99.90
20376;DHT22;10347;51.828;6.466;2023-11-18T10:51:51;8.50;99.90
20376;DHT22;10347;51.828;6.466;2023-11-18T10:54:16;8.50;99.90
20376;DHT22;10347;51.828;6.466;2023-11-18T10:56:52;8.60;99.90
20376;DHT22;10347;51.828;6.466;2023-11-18T10:59:23;8.60;99.90
20376;DHT22;10347;51.828;6.466;2023-11-18T11:01:50;8.60;99.90
20376;DHT22;10347;51.828;6.466;2023-11-18T11:04:16;8.60;99.90
20376;DHT22;10347;51.828;6.466;2023-11-18T11:06:49;8.60;99.90
20376;DHT22;10347;51.828;6.466;2023-11-18T11:09:19;8.60;99.90
20376;DHT22;10347;51.828;6.466;2023-11-18T11:11:54;8.60;99.90
20376;DHT22;10347;51.828;6.466;2023-11-18T11:14:23;8.70;99.90
20376;DHT22;10347;51.828;6.466;2023-11-18T11:16:55;8.70;99.90
20376;DHT22;10347;51.828;6.466;2023-11-18T11:19:25;8.70;99.90
20376;DHT22;10347;51.828;6.466;2023-11-18T11:22:04;8.70;99.90
20376;DHT22;10347;51.828;6.466;2023-11-18T11:27:43;8.70;99.90
20376;DHT22;10347;51.828;6.466;2023-11-18T11:30:22;8.70;99.90
20376;DHT22;10347;51.828;6.466;2023-11-18T11:33:09;8.70;99.90
20376;DHT22;10347;51.828;6.466;2023-11-18T11:35:40;8.70;99.90
20376;DHT22;10347;51.828;6.466;2023-11-18T11:38:14;8.80;99.90
20376;DHT22;10347;51.828;6.466;2023-11-18T11:40:42;8.80;99.90
20376;DHT22;10347;51.828;6.466;2023-11-18T11:43:10;8.80;99.90
20376;DHT22;10347;51.828;6.466;2023-11-18T11:45:52;8.80;99.90
20376;DHT22;10347;51.828;6.466;2023-11-18T11:48:20;8.80;99.90
20376;DHT22;10347;51.828;6.466;2023-11-18T11:51:09;8.80;99.90
20376;DHT22;10347;51.828;6.466;2023-11-18T11:53:44;8.80;99.90
20376;DHT22;10347;51.828;6.466;2023-11-18T11:56:13;8.80;99.90
20376;DHT22;10347;51.828;6.466;2023-11-18T11:58:47;8.80;99.90
20376;DHT22;10347;51.828;6.466;2023-11-18T12:01:38;8.80;99.90
20376;DHT22;10347;51.828;6.466;2023-11-18T12:04:09;8.90;99.90
20376;DHT22;10347;51.828;6.466;2023-11-18T12:06:46;8.90;99.90
20376;DHT22;10347;51.828;6.466;2023-11-18T12:09:14;8.90;99.90
20376;DHT22;10347;51.828;6.466;2023-11-18T12:11:45;8.90;99.90
20376;DHT22;10347;51.828;6.466;2023-11-18T12:14:15;8.90;99.90
20376;DHT22;10347;51.828;6.466;2023-11-18T12:17:06;8.90;99.90
20376;DHT22;10347;51.828;6.466;2023-11-18T12:19:47;8.90;99.90
20376;DHT22;10347;51.828;6.466;2023-11-18T12:22:18;8.90;99.90
20376;DHT22;10347;51.828;6.466;2023-11-18T12:27:45;9.00;99.90
20376;DHT22;10347;51.828;6.466;2023-11-18T12:33:05;9.00;99.90
20376;DHT22;10347;51.828;6.466;2023-11-18T12:41:01;9.00;99.90
20376;DHT22;10347;51.828;6.466;2023-11-18T12:44:05;9.00;99.90
20376;DHT22;10347;51.828;6.466;2023-11-18T12:49:16;9.00;99.90
20376;DHT22;10347;51.828;6.466;2023-11-18T12:51:43;9.10;99.90
20376;DHT22;10347;51.828;6.466;2023-11-18T12:54:10;9.10;99.90
20376;DHT22;10347;51.828;6.466;2023-11-18T12:56:37;9.10;99.90
20376;DHT22;10347;51.828;6.466;2023-11-18T12:59:04;9.10;99.90
20376;DHT22;10347;51.828;6.466;2023-11-18T13:01:32;9.20;99.90
20376;DHT22;10347;51.828;6.466;2023-11-18T13:04:03;9.20;99.90
20376;DHT22;10347;51.828;6.466;2023-11-18T13:06:29;9.20;99.90
20376;DHT22;10347;51.828;6.466;2023-11-18T13:08:55;9.20;99.90
20376;DHT22;10347;51.828;6.466;2023-11-18T13:11:24;9.20;99.90
20376;DHT22;10347;51.828;6.466;2023-11-18T13:13:53;9.20;99.90
20376;DHT22;10347;51.828;6.466;2023-11-18T13:16:19;9.20;99.90
20376;DHT22;10347;51.828;6.466;2023-11-18T13:18:45;9.20;99.90
20376;DHT22;10347;51.828;6.466;2023-11-18T13:21:19;9.20;99.90
20376;DHT22;10347;51.828;6.466;2023-11-18T13:23:47;9.20;99.90
20376;DHT22;10347;51.828;6.466;2023-11-18T13:26:18;9.30;99.90
20376;DHT22;10347;51.828;6.466;2023-11-18T13:28:48;9.30;99.90
20376;DHT22;10347;51.828;6.466;2023-11-18T13:31:15;9.30;99.90
20376;DHT22;10347;51.828;6.466;2023-11-18T13:33:47;9.30;99.90
20376;DHT22;10347;51.828;6.466;2023-11-18T13:36:14;9.30;99.90
20376;DHT22;10347;51.828;6.466;2023-11-18T13:38:41;9.30;99.90
20376;DHT22;10347;51.828;6.466;2023-11-18T13:41:09;9.30;99.90
20376;DHT22;10347;51.828;6.466;2023-11-18T13:43:45;9.30;99.90
20376;DHT22;10347;51.828;6.466;2023-11-18T13:46:17;9.30;99.90
20376;DHT22;10347;51.828;6.466;2023-11-18T13:48:49;9.40;99.90
20376;DHT22;10347;51.828;6.466;2023-11-18T13:51:15;9.30;99.90
20376;DHT22;10347;51.828;6.466;2023-11-18T13:53:42;9.30;99.90
20376;DHT22;10347;51.828;6.466;2023-11-18T13:56:09;9.40;99.90
20376;DHT22;10347;51.828;6.466;2023-11-18T13:58:36;9.40;99.90
20376;DHT22;10347;51.828;6.466;2023-11-18T14:01:08;9.40;99.90
20376;DHT22;10347;51.828;6.466;2023-11-18T14:03:35;9.40;99.90
20376;DHT22;10347;51.828;6.466;2023-11-18T14:06:05;9.40;99.90
20376;DHT22;10347;51.828;6.466;2023-11-18T14:08:31;9.40;99.90
20376;DHT22;10347;51.828;6.466;2023-11-18T14:10:57;9.40;99.90
20376;DHT22;10347;51.828;6.466;2023-11-18T14:13:22;9.40;99.90
20376;DHT22;10347;51.828;6.466;2023-11-18T14:15:48;9.40;99.90
20376;DHT22;10347;51.828;6.466;2023-11-18T14:18:20;9.40;99.90
20376;DHT22;10347;51.828;6.466;2023-11-18T14:20:46;9.50;99.90
20376;DHT22;10347;51.828;6.466;2023-11-18T14:23:13;9.40;99.90
20376;DHT22;10347;51.828;6.466;2023-11-18T14:25:39;9.50;99.90
20376;DHT22;10347;51.828;6.466;2023-11-18T14:28:05;9.40;99.90
20376;DHT22;10347;51.828;6.466;2023-11-18T14:30:34;9.40;99.90
20376;DHT22;10347;51.828;6.466;2023-11-18T14:33:00;9.40;99.90
20376;DHT22;10347;51.828;6.466;2023-11-18T14:35:25;9.50;99.90
20376;DHT22;10347;51.828;6.466;2023-11-18T14:37:51;9.40;99.90
20376;DHT22;10347;51.828;6.466;2023-11-18T14:40:17;9.50;99.90
20376;DHT22;10347;51.828;6.466;2023-11-18T14:42:45;9.50;99.90
20376;DHT22;10347;51.828;6.466;2023-11-18T14:45:12;9.50;99.90
20376;DHT22;10347;51.828;6.466;2023-11-18T14:47:42;9.50;99.90
20376;DHT22;10347;51.828;6.466;2023-11-18T14:50:11;9.50;99.90
20376;DHT22;10347;51.828;6.466;2023-11-18T14:52:52;9.50;99.90
20376;DHT22;10347;51.828;6.466;2023-11-18T14:55:25;9.50;99.90
20376;DHT22;10347;51.828;6.466;2023-11-18T14:57:51;9.50;99.90
20376;DHT22;10347;51.828;6.466;2023-11-18T15:00:16;9.50;99.90
20376;DHT22;10347;51.828;6.466;2023-11-18T15:02:47;9.50;99.90
20376;DHT22;10347;51.828;6.466;2023-11-18T15:05:15;9.50;99.90
20376;DHT22;10347;51.828;6.466;2023-11-18T15:07:50;9.50;99.90
20376;DHT22;10347;51.828;6.466;2023-11-18T15:10:17;9.40;99.90
20376;DHT22;10347;51.828;6.466;2023-11-18T15:12:55;9.40;99.90
20376;DHT22;10347;51.828;6.466;2023-11-18T15:15:24;9.40;99.90
20376;DHT22;10347;51.828;6.466;2023-11-18T15:17:57;9.50;99.90
20376;DHT22;10347;51.828;6.466;2023-11-18T15:20:24;9.50;99.90
20376;DHT22;10347;51.828;6.466;2023-11-18T15:22:50;9.50;99.90
20376;DHT22;10347;51.828;6.466;2023-11-18T15:25:16;9.50;99.90
20376;DHT22;10347;51.828;6.466;2023-11-18T15:27:45;9.50;99.90
20376;DHT22;10347;51.828;6.466;2023-11-18T15:30:12;9.50;99.90
20376;DHT22;10347;51.828;6.466;2023-11-18T15:32:42;9.50;99.90
20376;DHT22;10347;51.828;6.466;2023-11-18T15:35:09;9.50;99.90
20376;DHT22;10347;51.828;6.466;2023-11-18T15:37:41;9.50;99.90
20376;DHT22;10347;51.828;6.466;2023-11-18T15:40:10;9.50;99.90
20376;DHT22;10347;51.828;6.466;2023-11-18T15:42:43;9.50;99.90
20376;DHT22;10347;51.828;6.466;2023-11-18T15:45:18;9.50;99.90
20376;DHT22;10347;51.828;6.466;2023-11-18T15:47:44;9.60;99.90
20376;DHT22;10347;51.828;6.466;2023-11-18T15:50:11;9.60;99.90
20376;DHT22;10347;51.828;6.466;2023-11-18T15:52:40;9.60;99.90
20376;DHT22;10347;51.828;6.466;2023-11-18T15:55:07;9.60;99.90
20376;DHT22;10347;51.828;6.466;2023-11-18T15:57:41;9.60;99.90
20376;DHT22;10347;51.828;6.466;2023-11-18T16:00:09;9.60;99.90
20376;DHT22;10347;51.828;6.466;2023-11-18T16:02:47;9.60;99.90
20376;DHT22;10347;51.828;6.466;2023-11-18T16:05:15;9.60;99.90
20376;DHT22;10347;51.828;6.466;2023-11-18T16:07:45;9.60;99.90
20376;DHT22;10347;51.828;6.466;2023-11-18T16:10:11;9.60;99.90
20376;DHT22;10347;51.828;6.466;2023-11-18T16:12:47;9.60;99.90